sensor_id;sensor_type;location;lat;lon;timestamp;pressure;altitude;pressure_sealevel;temperature;humidity
21574;BME280;10948;48.706;9.258;2023-09-18T00:02:09;97169.91;;;18.59;100.00
21574;BME280;10948;48.706;9.258;2023-09-18T00:04:34;97169.91;;;18.59;100.00
21574;BME280;10948;48.706;9.258;2023-09-18T00:07:00;97170.06;;;18.83;100.00
21574;BME280;10948;48.706;9.258;2023-09-18T00:09:25;97176.22;;;18.66;100.00
21574;BME280;10948;48.706;9.258;2023-09-18T00:11:50;97175.00;;;18.53;100.00
21574;BME280;10948;48.706;9.258;2023-09-18T00:14:15;97176.75;;;18.70;100.00
21574;BME280;10948;48.706;9.258;2023-09-18T00:16:40;97166.25;;;18.52;100.00
21574;BME280;10948;48.706;9.258;2023-09-18T00:19:06;97160.00;;;18.53;100.00
21574;BME280;10948;48.706;9.258;2023-09-18T00:21:32;97151.44;;;18.51;100.00
21574;BME280;10948;48.706;9.258;2023-09-18T00:23:58;97150.19;;;18.63;100.00
21574;BME280;10948;48.706;9.258;2023-09-18T00:26:24;97146.06;;;18.35;100.00
21574;BME280;10948;48.706;9.258;2023-09-18T00:28:49;97138.75;;;18.55;100.00
21574;BME280;10948;48.706;9.258;2023-09-18T00:31:14;97129.31;;;18.44;100.00
21574;BME280;10948;48.706;9.258;2023-09-18T00:33:40;97135.72;;;18.42;100.00
21574;BME280;10948;48.706;9.258;2023-09-18T00:36:05;97132.00;;;18.52;100.00
21574;BME280;10948;48.706;9.258;2023-09-18T00:38:30;97134.59;;;18.44;100.00
21574;BME280;10948;48.706;9.258;2023-09-18T00:40:56;97131.25;;;18.34;100.00
21574;BME280;10948;48.706;9.258;2023-09-18T00:43:21;97138.88;;;18.45;100.00
21574;BME280;10948;48.706;9.258;2023-09-18T00:45:47;97129.31;;;18.44;100.00
21574;BME280;10948;48.706;9.258;2023-09-18T00:48:13;97133.25;;;18.23;100.00
21574;BME280;10948;48.706;9.258;2023-09-18T00:50:39;97131.00;;;18.28;100.00
21574;BME280;10948;48.706;9.258;2023-09-18T00:53:05;97134.91;;;18.41;100.00
21574;BME280;10948;48.706;9.258;2023-09-18T00:55:32;97125.88;;;18.44;100.00
21574;BME280;10948;48.706;9.258;2023-09-18T00:57:57;97123.44;;;18.50;100.00
21574;BME280;10948;48.706;9.258;2023-09-18T01:00:23;97126.53;;;18.46;100.00
21574;BME280;10948;48.706;9.258;2023-09-18T01:02:48;97121.66;;;18.33;100.00
21574;BME280;10948;48.706;9.258;2023-09-18T01:05:14;97124.09;;;18.52;100.00
21574;BME280;10948;48.706;9.258;2023-09-18T01:07:41;97120.19;;;18.64;100.00
21574;BME280;10948;48.706;9.258;2023-09-18T01:10:07;97118.59;;;18.71;100.00
21574;BME280;10948;48.706;9.258;2023-09-18T01:12:36;97124.44;;;18.57;100.00
21574;BME280;10948;48.706;9.258;2023-09-18T01:17:35;97123.91;;;18.79;100.00
21574;BME280;10948;48.706;9.258;2023-09-18T01:20:02;97128.97;;;18.73;100.00
21574;BME280;10948;48.706;9.258;2023-09-18T01:22:29;97129.13;;;18.71;100.00
21574;BME280;10948;48.706;9.258;2023-09-18T01:24:55;97128.88;;;18.82;100.00
21574;BME280;10948;48.706;9.258;2023-09-18T01:27:20;97123.00;;;18.96;100.00
21574;BME280;10948;48.706;9.258;2023-09-18T01:29:45;97126.78;;;18.94;100.00
21574;BME280;10948;48.706;9.258;2023-09-18T01:32:11;97120.66;;;18.93;100.00
21574;BME280;10948;48.706;9.258;2023-09-18T01:34:40;97124.50;;;19.07;100.00
21574;BME280;10948;48.706;9.258;2023-09-18T01:37:07;97105.19;;;18.98;100.00
21574;BME280;10948;48.706;9.258;2023-09-18T01:39:34;97128.41;;;18.95;100.00
21574;BME280;10948;48.706;9.258;2023-09-18T01:42:00;97143.63;;;18.67;100.00
21574;BME280;10948;48.706;9.258;2023-09-18T01:44:35;97138.44;;;18.83;100.00
21574;BME280;10948;48.706;9.258;2023-09-18T01:47:04;97147.91;;;19.10;100.00
21574;BME280;10948;48.706;9.258;2023-09-18T01:49:31;97174.78;;;19.05;100.00
21574;BME280;10948;48.706;9.258;2023-09-18T01:51:56;97223.28;;;19.12;100.00
21574;BME280;10948;48.706;9.258;2023-09-18T01:54:22;97194.28;;;19.46;100.00
21574;BME280;10948;48.706;9.258;2023-09-18T01:56:47;97178.34;;;19.95;100.00
21574;BME280;10948;48.706;9.258;2023-09-18T01:59:12;97173.06;;;20.03;100.00
21574;BME280;10948;48.706;9.258;2023-09-18T02:01:37;97180.88;;;20.13;100.00
21574;BME280;10948;48.706;9.258;2023-09-18T02:04:03;97161.38;;;20.06;100.00
21574;BME280;10948;48.706;9.258;2023-09-18T02:06:29;97154.25;;;20.06;100.00
21574;BME280;10948;48.706;9.258;2023-09-18T02:08:54;97135.09;;;19.96;100.00
21574;BME280;10948;48.706;9.258;2023-09-18T02:11:20;97108.69;;;20.12;100.00
21574;BME280;10948;48.706;9.258;2023-09-18T02:13:45;97098.75;;;19.98;100.00
21574;BME280;10948;48.706;9.258;2023-09-18T02:16:11;97087.22;;;19.75;100.00
21574;BME280;10948;48.706;9.258;2023-09-18T02:18:36;97073.03;;;19.60;100.00
21574;BME280;10948;48.706;9.258;2023-09-18T02:21:01;97077.97;;;19.55;100.00
21574;BME280;10948;48.706;9.258;2023-09-18T02:23:26;97058.03;;;19.77;100.00
21574;BME280;10948;48.706;9.258;2023-09-18T02:25:55;97043.00;;;19.61;100.00
21574;BME280;10948;48.706;9.258;2023-09-18T02:28:20;97023.66;;;19.69;100.00
21574;BME280;10948;48.706;9.258;2023-09-18T02:30:46;97019.72;;;19.73;100.00
21574;BME280;10948;48.706;9.258;2023-09-18T02:33:11;97025.84;;;19.41;100.00
21574;BME280;10948;48.706;9.258;2023-09-18T02:35:36;97024.19;;;19.56;100.00
21574;BME280;10948;48.706;9.258;2023-09-18T02:38:01;97042.31;;;19.51;100.00
21574;BME280;10948;48.706;9.258;2023-09-18T02:40:27;97055.03;;;19.40;100.00
21574;BME280;10948;48.706;9.258;2023-09-18T02:42:53;97069.88;;;19.49;100.00
21574;BME280;10948;48.706;9.258;2023-09-18T02:45:18;97079.31;;;19.67;100.00
21574;BME280;10948;48.706;9.258;2023-09-18T02:47:43;97088.22;;;19.82;100.00
21574;BME280;10948;48.706;9.258;2023-09-18T02:50:08;97080.28;;;19.90;100.00
21574;BME280;10948;48.706;9.258;2023-09-18T02:52:35;97083.25;;;19.79;100.00
21574;BME280;10948;48.706;9.258;2023-09-18T02:55:01;97092.16;;;19.62;100.00
21574;BME280;10948;48.706;9.258;2023-09-18T02:57:26;97079.63;;;19.40;100.00
21574;BME280;10948;48.706;9.258;2023-09-18T02:59:51;97084.41;;;19.45;100.00
21574;BME280;10948;48.706;9.258;2023-09-18T03:02:16;97078.78;;;19.40;100.00
21574;BME280;10948;48.706;9.258;2023-09-18T03:04:42;97079.28;;;19.59;100.00
21574;BME280;10948;48.706;9.258;2023-09-18T03:07:07;97080.28;;;19.42;100.00
21574;BME280;10948;48.706;9.258;2023-09-18T03:09:32;97083.56;;;19.44;100.00
21574;BME280;10948;48.706;9.258;2023-09-18T03:11:57;97085.50;;;19.26;100.00
21574;BME280;10948;48.706;9.258;2023-09-18T03:14:22;97088.50;;;19.39;100.00
21574;BME280;10948;48.706;9.258;2023-09-18T03:16:48;97075.97;;;19.49;100.00
21574;BME280;10948;48.706;9.258;2023-09-18T03:19:13;97076.31;;;19.54;100.00
21574;BME280;10948;48.706;9.258;2023-09-18T03:21:38;97081.25;;;19.33;100.00
21574;BME280;10948;48.706;9.258;2023-09-18T03:24:03;97080.50;;;19.15;100.00
21574;BME280;10948;48.706;9.258;2023-09-18T03:26:29;97071.47;;;19.18;100.00
21574;BME280;10948;48.706;9.258;2023-09-18T03:28:54;97068.63;;;19.19;100.00
21574;BME280;10948;48.706;9.258;2023-09-18T03:31:19;97074.63;;;19.29;100.00
21574;BME280;10948;48.706;9.258;2023-09-18T03:33:45;97080.72;;;19.30;100.00
21574;BME280;10948;48.706;9.258;2023-09-18T03:36:11;97093.75;;;19.23;100.00
21574;BME280;10948;48.706;9.258;2023-09-18T03:38:36;97095.09;;;19.35;100.00
21574;BME280;10948;48.706;9.258;2023-09-18T03:41:02;97113.56;;;19.27;100.00
21574;BME280;10948;48.706;9.258;2023-09-18T03:43:27;97136.31;;;19.20;100.00
21574;BME280;10948;48.706;9.258;2023-09-18T03:45:52;97166.44;;;19.18;100.00
21574;BME280;10948;48.706;9.258;2023-09-18T03:48:17;97170.19;;;19.07;100.00
21574;BME280;10948;48.706;9.258;2023-09-18T03:50:43;97183.09;;;19.18;100.00
21574;BME280;10948;48.706;9.258;2023-09-18T03:53:08;97197.25;;;19.17;100.00
21574;BME280;10948;48.706;9.258;2023-09-18T03:55:33;97212.16;;;19.26;100.00
21574;BME280;10948;48.706;9.258;2023-09-18T03:57:58;97222.47;;;19.45;100.00
21574;BME280;10948;48.706;9.258;2023-09-18T04:00:24;97224.78;;;19.40;100.00
21574;BME280;10948;48.706;9.258;2023-09-18T04:02:49;97219.81;;;19.45;100.00
21574;BME280;10948;48.706;9.258;2023-09-18T04:05:14;97197.72;;;19.46;100.00
21574;BME280;10948;48.706;9.258;2023-09-18T04:07:39;97200.84;;;19.42;100.00
21574;BME280;10948;48.706;9.258;2023-09-18T04:10:05;97204.94;;;19.28;100.00
21574;BME280;10948;48.706;9.258;2023-09-18T04:12:30;97209.66;;;19.17;100.00
21574;BME280;10948;48.706;9.258;2023-09-18T04:14:55;97202.47;;;19.35;100.00
21574;BME280;10948;48.706;9.258;2023-09-18T04:17:21;97204.94;;;19.28;100.00
21574;BME280;10948;48.706;9.258;2023-09-18T04:19:46;97194.03;;;19.23;100.00
21574;BME280;10948;48.706;9.258;2023-09-18T04:22:12;97176.41;;;19.24;100.00
21574;BME280;10948;48.706;9.258;2023-09-18T04:24:37;97165.34;;;19.20;100.00
21574;BME280;10948;48.706;9.258;2023-09-18T04:27:02;97160.31;;;19.09;100.00
21574;BME280;10948;48.706;9.258;2023-09-18T04:29:27;97154.03;;;19.10;100.00
21574;BME280;10948;48.706;9.258;2023-09-18T04:31:53;97144.81;;;19.14;100.00
21574;BME280;10948;48.706;9.258;2023-09-18T04:34:20;97129.69;;;19.24;100.00
21574;BME280;10948;48.706;9.258;2023-09-18T04:36:45;97117.09;;;19.10;100.00
21574;BME280;10948;48.706;9.258;2023-09-18T04:39:10;97113.38;;;19.21;100.00
21574;BME280;10948;48.706;9.258;2023-09-18T04:41:35;97097.59;;;18.95;100.00
21574;BME280;10948;48.706;9.258;2023-09-18T04:44:01;97094.97;;;18.95;100.00
21574;BME280;10948;48.706;9.258;2023-09-18T04:46:26;97104.41;;;19.06;100.00
21574;BME280;10948;48.706;9.258;2023-09-18T04:48:52;97096.00;;;19.10;100.00
21574;BME280;10948;48.706;9.258;2023-09-18T04:51:17;97106.38;;;19.04;100.00
21574;BME280;10948;48.706;9.258;2023-09-18T04:53:43;97100.91;;;18.97;100.00
21574;BME280;10948;48.706;9.258;2023-09-18T04:56:09;97104.19;;;18.99;100.00
21574;BME280;10948;48.706;9.258;2023-09-18T04:58:37;97098.91;;;18.99;100.00
21574;BME280;10948;48.706;9.258;2023-09-18T05:01:02;97101.91;;;19.04;100.00
21574;BME280;10948;48.706;9.258;2023-09-18T05:03:30;97116.09;;;19.03;100.00
21574;BME280;10948;48.706;9.258;2023-09-18T05:05:56;97119.00;;;18.92;100.00
21574;BME280;10948;48.706;9.258;2023-09-18T05:08:21;97133.06;;;19.01;100.00
21574;BME280;10948;48.706;9.258;2023-09-18T05:10:47;97121.00;;;18.98;100.00
21574;BME280;10948;48.706;9.258;2023-09-18T05:13:12;97122.03;;;19.13;100.00
21574;BME280;10948;48.706;9.258;2023-09-18T05:15:38;97128.22;;;19.22;100.00
21574;BME280;10948;48.706;9.258;2023-09-18T05:18:03;97125.00;;;19.02;100.00
21574;BME280;10948;48.706;9.258;2023-09-18T05:20:29;97120.03;;;18.99;100.00
21574;BME280;10948;48.706;9.258;2023-09-18T05:22:55;97126.00;;;19.09;100.00
21574;BME280;10948;48.706;9.258;2023-09-18T05:25:21;97135.09;;;19.15;100.00
21574;BME280;10948;48.706;9.258;2023-09-18T05:27:47;97127.91;;;19.33;100.00
21574;BME280;10948;48.706;9.258;2023-09-18T05:30:18;97139.66;;;19.46;100.00
21574;BME280;10948;48.706;9.258;2023-09-18T05:32:45;97131.91;;;19.53;100.00
21574;BME280;10948;48.706;9.258;2023-09-18T05:35:11;97132.72;;;19.37;100.00
21574;BME280;10948;48.706;9.258;2023-09-18T05:37:38;97124.44;;;19.32;100.00
21574;BME280;10948;48.706;9.258;2023-09-18T05:40:06;97130.75;;;19.47;100.00
21574;BME280;10948;48.706;9.258;2023-09-18T05:42:35;97131.06;;;19.44;100.00
21574;BME280;10948;48.706;9.258;2023-09-18T05:45:01;97130.28;;;19.52;100.00
21574;BME280;10948;48.706;9.258;2023-09-18T05:47:26;97130.44;;;19.66;100.00
21574;BME280;10948;48.706;9.258;2023-09-18T05:49:51;97134.72;;;19.51;100.00
21574;BME280;10948;48.706;9.258;2023-09-18T05:52:16;97148.75;;;19.60;100.00
21574;BME280;10948;48.706;9.258;2023-09-18T05:54:42;97146.63;;;19.71;100.00
21574;BME280;10948;48.706;9.258;2023-09-18T05:57:07;97139.38;;;19.81;100.00
21574;BME280;10948;48.706;9.258;2023-09-18T05:59:32;97136.75;;;19.89;100.00
21574;BME280;10948;48.706;9.258;2023-09-18T06:01:57;97134.09;;;19.97;100.00
21574;BME280;10948;48.706;9.258;2023-09-18T06:04:23;97131.13;;;19.84;100.00
21574;BME280;10948;48.706;9.258;2023-09-18T06:06:48;97130.81;;;19.95;100.00
21574;BME280;10948;48.706;9.258;2023-09-18T06:09:14;97113.31;;;20.02;100.00
21574;BME280;10948;48.706;9.258;2023-09-18T06:11:39;97116.47;;;20.14;100.00
21574;BME280;10948;48.706;9.258;2023-09-18T06:14:04;97118.13;;;20.07;100.00
21574;BME280;10948;48.706;9.258;2023-09-18T06:16:30;97112.66;;;20.00;100.00
21574;BME280;10948;48.706;9.258;2023-09-18T06:18:56;97104.75;;;20.08;100.00
21574;BME280;10948;48.706;9.258;2023-09-18T06:21:21;97104.56;;;20.18;100.00
21574;BME280;10948;48.706;9.258;2023-09-18T06:23:46;97110.34;;;20.29;100.00
21574;BME280;10948;48.706;9.258;2023-09-18T06:26:12;97111.66;;;20.33;100.00
21574;BME280;10948;48.706;9.258;2023-09-18T06:28:37;97107.03;;;20.19;100.00
21574;BME280;10948;48.706;9.258;2023-09-18T06:31:03;97111.16;;;20.22;100.00
21574;BME280;10948;48.706;9.258;2023-09-18T06:33:29;97115.13;;;20.26;100.00
21574;BME280;10948;48.706;9.258;2023-09-18T06:35:54;97114.97;;;20.27;100.00
21574;BME280;10948;48.706;9.258;2023-09-18T06:38:19;97121.22;;;20.34;100.00
21574;BME280;10948;48.706;9.258;2023-09-18T06:40:46;97140.72;;;20.17;100.00
21574;BME280;10948;48.706;9.258;2023-09-18T06:43:11;97141.56;;;20.18;100.00
21574;BME280;10948;48.706;9.258;2023-09-18T06:45:36;97147.66;;;20.18;100.00
21574;BME280;10948;48.706;9.258;2023-09-18T06:48:03;97147.00;;;20.24;100.00
21574;BME280;10948;48.706;9.258;2023-09-18T06:50:29;97146.03;;;20.33;100.00
21574;BME280;10948;48.706;9.258;2023-09-18T06:52:54;97143.38;;;20.33;100.00
21574;BME280;10948;48.706;9.258;2023-09-18T06:55:20;97150.28;;;20.42;100.00
21574;BME280;10948;48.706;9.258;2023-09-18T06:57:45;97151.28;;;20.41;100.00
21574;BME280;10948;48.706;9.258;2023-09-18T07:00:12;97148.97;;;20.30;100.00
21574;BME280;10948;48.706;9.258;2023-09-18T07:02:40;97154.25;;;20.46;100.00
21574;BME280;10948;48.706;9.258;2023-09-18T07:05:05;97140.84;;;20.56;100.00
21574;BME280;10948;48.706;9.258;2023-09-18T07:07:31;97155.06;;;20.55;100.00
21574;BME280;10948;48.706;9.258;2023-09-18T07:09:57;97149.13;;;20.45;100.00
21574;BME280;10948;48.706;9.258;2023-09-18T07:12:22;97142.34;;;20.50;100.00
21574;BME280;10948;48.706;9.258;2023-09-18T07:14:48;97144.78;;;20.68;100.00
21574;BME280;10948;48.706;9.258;2023-09-18T07:17:13;97135.50;;;20.80;100.00
21574;BME280;10948;48.706;9.258;2023-09-18T07:19:38;97137.13;;;20.89;100.00
21574;BME280;10948;48.706;9.258;2023-09-18T07:22:04;97134.28;;;21.06;100.00
21574;BME280;10948;48.706;9.258;2023-09-18T07:24:29;97135.28;;;20.97;100.00
21574;BME280;10948;48.706;9.258;2023-09-18T07:26:54;97137.97;;;20.89;100.00
21574;BME280;10948;48.706;9.258;2023-09-18T07:29:20;97141.91;;;20.85;100.00
21574;BME280;10948;48.706;9.258;2023-09-18T07:31:45;97145.22;;;20.95;100.00
21574;BME280;10948;48.706;9.258;2023-09-18T07:34:11;97147.19;;;20.85;100.00
21574;BME280;10948;48.706;9.258;2023-09-18T07:36:37;97164.44;;;20.89;100.00
21574;BME280;10948;48.706;9.258;2023-09-18T07:39:03;97171.69;;;20.95;100.00
21574;BME280;10948;48.706;9.258;2023-09-18T07:41:29;97186.25;;;20.83;100.00
21574;BME280;10948;48.706;9.258;2023-09-18T07:43:54;97191.53;;;20.83;100.00
21574;BME280;10948;48.706;9.258;2023-09-18T07:46:19;97185.25;;;20.92;100.00
21574;BME280;10948;48.706;9.258;2023-09-18T07:48:45;97186.09;;;20.93;100.00
21574;BME280;10948;48.706;9.258;2023-09-18T07:51:11;97193.13;;;21.16;100.00
21574;BME280;10948;48.706;9.258;2023-09-18T07:53:36;97182.81;;;21.29;100.00
21574;BME280;10948;48.706;9.258;2023-09-18T07:56:01;97176.47;;;21.38;100.00
21574;BME280;10948;48.706;9.258;2023-09-18T07:58:29;97187.69;;;21.48;100.00
21574;BME280;10948;48.706;9.258;2023-09-18T08:00:57;97187.28;;;21.67;100.00
21574;BME280;10948;48.706;9.258;2023-09-18T08:03:23;97190.47;;;21.85;100.00
21574;BME280;10948;48.706;9.258;2023-09-18T08:05:52;97202.13;;;21.76;100.00
21574;BME280;10948;48.706;9.258;2023-09-18T08:08:18;97208.94;;;22.01;100.00
21574;BME280;10948;48.706;9.258;2023-09-18T08:10:45;97217.19;;;22.06;100.00
21574;BME280;10948;48.706;9.258;2023-09-18T08:13:10;97216.50;;;22.04;100.00
21574;BME280;10948;48.706;9.258;2023-09-18T08:15:35;97220.53;;;22.00;100.00
21574;BME280;10948;48.706;9.258;2023-09-18T08:18:01;97232.16;;;21.91;100.00
21574;BME280;10948;48.706;9.258;2023-09-18T08:20:26;97252.69;;;21.59;100.00
21574;BME280;10948;48.706;9.258;2023-09-18T08:22:53;97258.19;;;21.49;100.00
21574;BME280;10948;48.706;9.258;2023-09-18T08:25:18;97267.97;;;21.41;100.00
21574;BME280;10948;48.706;9.258;2023-09-18T08:27:44;97269.81;;;21.40;100.00
21574;BME280;10948;48.706;9.258;2023-09-18T08:30:10;97270.34;;;21.28;100.00
21574;BME280;10948;48.706;9.258;2023-09-18T08:32:36;97266.91;;;21.11;100.00
21574;BME280;10948;48.706;9.258;2023-09-18T08:35:02;97267.59;;;20.97;100.00
21574;BME280;10948;48.706;9.258;2023-09-18T08:37:27;97273.25;;;20.94;100.00
21574;BME280;10948;48.706;9.258;2023-09-18T08:39:53;97270.91;;;20.83;100.00
21574;BME280;10948;48.706;9.258;2023-09-18T08:42:18;97261.81;;;20.78;100.00
21574;BME280;10948;48.706;9.258;2023-09-18T08:44:45;97275.53;;;20.65;100.00
21574;BME280;10948;48.706;9.258;2023-09-18T08:47:11;97261.66;;;20.55;100.00
21574;BME280;10948;48.706;9.258;2023-09-18T08:49:38;97252.06;;;20.62;100.00
21574;BME280;10948;48.706;9.258;2023-09-18T08:52:04;97258.69;;;20.42;100.00
21574;BME280;10948;48.706;9.258;2023-09-18T08:54:31;97271.22;;;20.32;100.00
21574;BME280;10948;48.706;9.258;2023-09-18T08:56:58;97276.81;;;20.05;100.00
21574;BME280;10948;48.706;9.258;2023-09-18T08:59:24;97287.47;;;19.88;100.00
21574;BME280;10948;48.706;9.258;2023-09-18T09:01:50;97298.16;;;19.78;100.00
21574;BME280;10948;48.706;9.258;2023-09-18T09:04:15;97297.16;;;19.71;100.00
21574;BME280;10948;48.706;9.258;2023-09-18T09:06:40;97294.16;;;19.66;100.00
21574;BME280;10948;48.706;9.258;2023-09-18T09:09:06;97293.63;;;20.04;100.00
21574;BME280;10948;48.706;9.258;2023-09-18T09:11:33;97301.03;;;20.01;100.00
21574;BME280;10948;48.706;9.258;2023-09-18T09:14:16;97299.94;;;20.11;100.00
21574;BME280;10948;48.706;9.258;2023-09-18T09:16:53;97300.59;;;20.05;100.00
21574;BME280;10948;48.706;9.258;2023-09-18T09:19:18;97302.13;;;20.32;100.00
21574;BME280;10948;48.706;9.258;2023-09-18T09:21:52;97293.41;;;20.47;100.00
21574;BME280;10948;48.706;9.258;2023-09-18T09:24:22;97285.81;;;20.60;100.00
21574;BME280;10948;48.706;9.258;2023-09-18T09:27:00;97288.13;;;20.87;100.00
21574;BME280;10948;48.706;9.258;2023-09-18T09:29:28;97276.53;;;20.64;100.00
21574;BME280;10948;48.706;9.258;2023-09-18T09:31:55;97276.53;;;20.64;100.00
21574;BME280;10948;48.706;9.258;2023-09-18T09:34:27;97272.91;;;20.57;100.00
21574;BME280;10948;48.706;9.258;2023-09-18T09:36:55;97278.00;;;20.35;100.00
21574;BME280;10948;48.706;9.258;2023-09-18T09:39:21;97289.56;;;20.18;100.00
21574;BME280;10948;48.706;9.258;2023-09-18T09:41:47;97294.22;;;20.48;100.00
21574;BME280;10948;48.706;9.258;2023-09-18T09:44:13;97289.59;;;20.50;100.00
21574;BME280;10948;48.706;9.258;2023-09-18T09:46:44;97289.75;;;20.40;100.00
21574;BME280;10948;48.706;9.258;2023-09-18T09:49:10;97281.50;;;20.43;100.00
21574;BME280;10948;48.706;9.258;2023-09-18T09:51:35;97274.56;;;20.50;100.00
21574;BME280;10948;48.706;9.258;2023-09-18T09:54:01;97278.66;;;20.13;100.00
21574;BME280;10948;48.706;9.258;2023-09-18T09:56:42;97273.72;;;20.26;100.00
21574;BME280;10948;48.706;9.258;2023-09-18T09:59:08;97259.69;;;20.33;100.00
21574;BME280;10948;48.706;9.258;2023-09-18T10:01:35;97262.00;;;20.20;100.00
21574;BME280;10948;48.706;9.258;2023-09-18T10:04:09;97257.19;;;20.40;100.00
21574;BME280;10948;48.706;9.258;2023-09-18T10:06:35;97276.16;;;20.11;100.00
21574;BME280;10948;48.706;9.258;2023-09-18T10:09:04;97293.91;;;20.51;100.00
21574;BME280;10948;48.706;9.258;2023-09-18T10:11:33;97301.66;;;20.36;100.00
21574;BME280;10948;48.706;9.258;2023-09-18T10:14:04;97314.06;;;20.52;100.00
21574;BME280;10948;48.706;9.258;2023-09-18T10:16:32;97317.69;;;20.67;100.00
21574;BME280;10948;48.706;9.258;2023-09-18T10:19:11;97312.56;;;20.41;100.00
21574;BME280;10948;48.706;9.258;2023-09-18T10:21:48;97307.22;;;20.25;100.00
21574;BME280;10948;48.706;9.258;2023-09-18T10:24:24;97305.22;;;20.11;100.00
21574;BME280;10948;48.706;9.258;2023-09-18T10:26:57;97309.47;;;20.04;100.00
21574;BME280;10948;48.706;9.258;2023-09-18T10:29:23;97342.13;;;19.87;100.00
21574;BME280;10948;48.706;9.258;2023-09-18T10:31:49;97367.72;;;20.20;100.00
21574;BME280;10948;48.706;9.258;2023-09-18T10:34:15;97361.44;;;20.29;100.00
21574;BME280;10948;48.706;9.258;2023-09-18T10:36:41;97371.97;;;20.13;100.00
21574;BME280;10948;48.706;9.258;2023-09-18T10:39:09;97371.66;;;20.16;100.00
21574;BME280;10948;48.706;9.258;2023-09-18T10:41:35;97372.31;;;20.26;100.00
21574;BME280;10948;48.706;9.258;2023-09-18T10:44:01;97364.38;;;20.18;100.00
21574;BME280;10948;48.706;9.258;2023-09-18T10:46:29;97358.16;;;20.27;100.00
21574;BME280;10948;48.706;9.258;2023-09-18T10:48:54;97344.94;;;20.27;100.00
21574;BME280;10948;48.706;9.258;2023-09-18T10:51:20;97349.06;;;20.38;100.00
21574;BME280;10948;48.706;9.258;2023-09-18T10:53:47;97333.00;;;20.15;100.00
21574;BME280;10948;48.706;9.258;2023-09-18T10:56:14;97322.44;;;20.15;100.00
21574;BME280;10948;48.706;9.258;2023-09-18T10:58:40;97318.09;;;20.06;100.00
21574;BME280;10948;48.706;9.258;2023-09-18T11:01:06;97311.25;;;19.88;100.00
21574;BME280;10948;48.706;9.258;2023-09-18T11:03:33;97317.72;;;19.93;100.00
21574;BME280;10948;48.706;9.258;2023-09-18T11:06:02;97314.03;;;19.86;100.00
21574;BME280;10948;48.706;9.258;2023-09-18T11:08:29;97318.28;;;19.71;100.00
21574;BME280;10948;48.706;9.258;2023-09-18T11:10:55;97311.31;;;19.62;100.00
21574;BME280;10948;48.706;9.258;2023-09-18T11:13:31;97314.72;;;19.47;100.00
21574;BME280;10948;48.706;9.258;2023-09-18T11:16:03;97308.03;;;19.68;100.00
21574;BME280;10948;48.706;9.258;2023-09-18T11:18:38;97306.44;;;19.42;100.00
21574;BME280;10948;48.706;9.258;2023-09-18T11:21:10;97312.09;;;19.55;100.00
21574;BME280;10948;48.706;9.258;2023-09-18T11:23:36;97323.38;;;19.65;100.00
21574;BME280;10948;48.706;9.258;2023-09-18T11:26:19;97332.59;;;19.61;100.00
21574;BME280;10948;48.706;9.258;2023-09-18T11:28:45;97341.91;;;19.73;100.00
21574;BME280;10948;48.706;9.258;2023-09-18T11:31:13;97324.91;;;19.75;100.00
21574;BME280;10948;48.706;9.258;2023-09-18T11:33:40;97325.28;;;19.88;100.00
21574;BME280;10948;48.706;9.258;2023-09-18T11:36:08;97295.84;;;19.75;100.00
21574;BME280;10948;48.706;9.258;2023-09-18T11:38:55;97290.09;;;19.80;100.00
21574;BME280;10948;48.706;9.258;2023-09-18T11:41:27;97310.75;;;19.92;100.00
21574;BME280;10948;48.706;9.258;2023-09-18T11:46:38;97330.38;;;20.23;100.00
21574;BME280;10948;48.706;9.258;2023-09-18T11:49:05;97322.09;;;20.26;100.00
21574;BME280;10948;48.706;9.258;2023-09-18T11:51:32;97338.25;;;20.07;100.00
21574;BME280;10948;48.706;9.258;2023-09-18T11:53:57;97325.41;;;20.20;100.00
21574;BME280;10948;48.706;9.258;2023-09-18T11:56:23;97339.66;;;20.35;100.00
21574;BME280;10948;48.706;9.258;2023-09-18T11:58:50;97318.16;;;20.38;100.00
21574;BME280;10948;48.706;9.258;2023-09-18T12:01:15;97335.88;;;20.46;100.00
21574;BME280;10948;48.706;9.258;2023-09-18T12:03:41;97322.78;;;20.44;100.00
21574;BME280;10948;48.706;9.258;2023-09-18T12:06:06;97321.28;;;20.34;100.00
21574;BME280;10948;48.706;9.258;2023-09-18T12:08:33;97325.44;;;20.36;100.00
21574;BME280;10948;48.706;9.258;2023-09-18T12:11:00;97338.78;;;20.19;100.00
21574;BME280;10948;48.706;9.258;2023-09-18T12:13:30;97336.31;;;20.25;100.00
21574;BME280;10948;48.706;9.258;2023-09-18T12:15:59;97326.88;;;20.23;100.00
21574;BME280;10948;48.706;9.258;2023-09-18T12:18:25;97310.56;;;20.27;100.00
21574;BME280;10948;48.706;9.258;2023-09-18T12:20:53;97296.03;;;20.55;100.00
21574;BME280;10948;48.706;9.258;2023-09-18T12:23:21;97302.97;;;20.48;100.00
21574;BME280;10948;48.706;9.258;2023-09-18T12:25:47;97297.66;;;20.16;100.00
21574;BME280;10948;48.706;9.258;2023-09-18T12:28:13;97294.34;;;20.14;100.00
21574;BME280;10948;48.706;9.258;2023-09-18T12:30:39;97302.63;;;20.43;100.00
21574;BME280;10948;48.706;9.258;2023-09-18T12:33:05;97298.50;;;20.49;100.00
21574;BME280;10948;48.706;9.258;2023-09-18T12:35:30;97289.75;;;20.64;100.00
21574;BME280;10948;48.706;9.258;2023-09-18T12:37:59;97288.13;;;20.87;100.00
21574;BME280;10948;48.706;9.258;2023-09-18T12:40:26;97277.81;;;21.16;100.00
21574;BME280;10948;48.706;9.258;2023-09-18T12:42:51;97276.13;;;21.31;100.00
21574;BME280;10948;48.706;9.258;2023-09-18T12:45:19;97282.94;;;21.80;100.00
21574;BME280;10948;48.706;9.258;2023-09-18T12:47:44;97292.53;;;21.65;100.00
21574;BME280;10948;48.706;9.258;2023-09-18T12:50:12;97297.66;;;21.83;100.00
21574;BME280;10948;48.706;9.258;2023-09-18T12:52:37;97298.75;;;21.96;100.00